sensor_id;sensor_type;location;lat;lon;timestamp;P1;durP1;ratioP1;P2;durP2;ratioP2
4957;SDS011;2494;51.872;9.688;2023-03-21T00:02:45;12.53;;;9.50;;
4957;SDS011;2494;51.872;9.688;2023-03-21T00:05:30;11.37;;;10.07;;
4957;SDS011;2494;51.872;9.688;2023-03-21T00:08:16;17.23;;;13.40;;
4957;SDS011;2494;51.872;9.688;2023-03-21T00:11:03;14.10;;;12.00;;
4957;SDS011;2494;51.872;9.688;2023-03-21T00:13:48;17.83;;;12.20;;
4957;SDS011;2494;51.872;9.688;2023-03-21T00:16:33;15.73;;;12.80;;
4957;SDS011;2494;51.872;9.688;2023-03-21T00:19:19;19.23;;;11.40;;
4957;SDS011;2494;51.872;9.688;2023-03-21T00:22:05;13.40;;;11.50;;
4957;SDS011;2494;51.872;9.688;2023-03-21T00:24:51;14.17;;;11.40;;
4957;SDS011;2494;51.872;9.688;2023-03-21T00:27:37;15.37;;;12.20;;
4957;SDS011;2494;51.872;9.688;2023-03-21T00:30:22;17.73;;;11.87;;
4957;SDS011;2494;51.872;9.688;2023-03-21T00:33:08;17.37;;;12.13;;
4957;SDS011;2494;51.872;9.688;2023-03-21T00:35:53;19.80;;;12.70;;
4957;SDS011;2494;51.872;9.688;2023-03-21T00:38:38;18.97;;;12.20;;
4957;SDS011;2494;51.872;9.688;2023-03-21T00:41:25;16.90;;;12.60;;
4957;SDS011;2494;51.872;9.688;2023-03-21T00:44:11;17.13;;;13.00;;
4957;SDS011;2494;51.872;9.688;2023-03-21T00:46:58;16.77;;;12.40;;
4957;SDS011;2494;51.872;9.688;2023-03-21T00:49:45;18.17;;;13.30;;
4957;SDS011;2494;51.872;9.688;2023-03-21T00:52:30;14.53;;;12.67;;
4957;SDS011;2494;51.872;9.688;2023-03-21T00:55:16;20.50;;;13.87;;
4957;SDS011;2494;51.872;9.688;2023-03-21T00:58:03;20.13;;;12.17;;
4957;SDS011;2494;51.872;9.688;2023-03-21T01:00:49;17.40;;;12.40;;
4957;SDS011;2494;51.872;9.688;2023-03-21T01:03:34;22.50;;;14.57;;
4957;SDS011;2494;51.872;9.688;2023-03-21T01:06:25;18.23;;;11.00;;
4957;SDS011;2494;51.872;9.688;2023-03-21T01:09:11;20.27;;;12.50;;
4957;SDS011;2494;51.872;9.688;2023-03-21T01:11:57;23.30;;;12.10;;
4957;SDS011;2494;51.872;9.688;2023-03-21T01:14:44;16.60;;;13.50;;
4957;SDS011;2494;51.872;9.688;2023-03-21T01:17:28;17.87;;;13.67;;
4957;SDS011;2494;51.872;9.688;2023-03-21T01:20:14;16.70;;;13.60;;
4957;SDS011;2494;51.872;9.688;2023-03-21T01:22:59;20.17;;;13.20;;
4957;SDS011;2494;51.872;9.688;2023-03-21T01:25:46;18.40;;;13.50;;
4957;SDS011;2494;51.872;9.688;2023-03-21T01:28:32;19.37;;;13.80;;
4957;SDS011;2494;51.872;9.688;2023-03-21T01:31:18;22.80;;;13.57;;
4957;SDS011;2494;51.872;9.688;2023-03-21T01:34:03;23.73;;;12.77;;
4957;SDS011;2494;51.872;9.688;2023-03-21T01:36:49;17.20;;;13.47;;
4957;SDS011;2494;51.872;9.688;2023-03-21T01:39:34;20.17;;;13.70;;
4957;SDS011;2494;51.872;9.688;2023-03-21T01:42:19;18.90;;;13.77;;
4957;SDS011;2494;51.872;9.688;2023-03-21T01:45:06;19.30;;;13.77;;
4957;SDS011;2494;51.872;9.688;2023-03-21T01:48:12;21.63;;;13.80;;
4957;SDS011;2494;51.872;9.688;2023-03-21T01:50:57;24.20;;;14.90;;
4957;SDS011;2494;51.872;9.688;2023-03-21T01:53:44;26.20;;;17.13;;
4957;SDS011;2494;51.872;9.688;2023-03-21T01:56:30;19.30;;;14.37;;
4957;SDS011;2494;51.872;9.688;2023-03-21T01:59:18;25.97;;;15.90;;
4957;SDS011;2494;51.872;9.688;2023-03-21T02:02:06;18.23;;;15.43;;
4957;SDS011;2494;51.872;9.688;2023-03-21T02:04:54;24.20;;;15.50;;
4957;SDS011;2494;51.872;9.688;2023-03-21T02:07:40;21.40;;;15.53;;
4957;SDS011;2494;51.872;9.688;2023-03-21T02:10:26;21.27;;;15.27;;
4957;SDS011;2494;51.872;9.688;2023-03-21T02:13:12;21.63;;;14.97;;
4957;SDS011;2494;51.872;9.688;2023-03-21T02:15:58;23.33;;;16.17;;
4957;SDS011;2494;51.872;9.688;2023-03-21T02:18:47;25.97;;;17.03;;
4957;SDS011;2494;51.872;9.688;2023-03-21T02:21:54;24.47;;;16.43;;
4957;SDS011;2494;51.872;9.688;2023-03-21T02:24:53;22.90;;;16.03;;
4957;SDS011;2494;51.872;9.688;2023-03-21T02:27:41;27.73;;;16.30;;
4957;SDS011;2494;51.872;9.688;2023-03-21T02:30:37;25.27;;;16.80;;
4957;SDS011;2494;51.872;9.688;2023-03-21T02:33:40;23.60;;;15.53;;
4957;SDS011;2494;51.872;9.688;2023-03-21T02:39:26;27.73;;;16.63;;
4957;SDS011;2494;51.872;9.688;2023-03-21T02:42:15;27.83;;;16.20;;
4957;SDS011;2494;51.872;9.688;2023-03-21T02:45:01;27.03;;;15.70;;
4957;SDS011;2494;51.872;9.688;2023-03-21T02:47:50;26.63;;;16.10;;
4957;SDS011;2494;51.872;9.688;2023-03-21T02:50:37;24.77;;;13.97;;
4957;SDS011;2494;51.872;9.688;2023-03-21T02:53:25;17.80;;;12.30;;
4957;SDS011;2494;51.872;9.688;2023-03-21T02:56:14;14.47;;;12.37;;
4957;SDS011;2494;51.872;9.688;2023-03-21T02:59:00;19.57;;;11.30;;
4957;SDS011;2494;51.872;9.688;2023-03-21T03:01:46;19.27;;;12.93;;
4957;SDS011;2494;51.872;9.688;2023-03-21T03:04:31;15.90;;;13.70;;
4957;SDS011;2494;51.872;9.688;2023-03-21T03:07:18;26.27;;;15.23;;
4957;SDS011;2494;51.872;9.688;2023-03-21T03:10:25;20.57;;;13.87;;
4957;SDS011;2494;51.872;9.688;2023-03-21T03:13:17;12.87;;;11.50;;
4957;SDS011;2494;51.872;9.688;2023-03-21T03:16:07;18.37;;;11.70;;
4957;SDS011;2494;51.872;9.688;2023-03-21T03:18:58;11.70;;;10.47;;
4957;SDS011;2494;51.872;9.688;2023-03-21T03:21:45;26.87;;;12.70;;
4957;SDS011;2494;51.872;9.688;2023-03-21T03:24:32;12.30;;;10.93;;
4957;SDS011;2494;51.872;9.688;2023-03-21T03:27:18;11.80;;;10.13;;
4957;SDS011;2494;51.872;9.688;2023-03-21T03:30:08;18.80;;;12.20;;
4957;SDS011;2494;51.872;9.688;2023-03-21T03:32:55;22.10;;;10.87;;
4957;SDS011;2494;51.872;9.688;2023-03-21T03:35:42;15.40;;;10.93;;
4957;SDS011;2494;51.872;9.688;2023-03-21T03:38:28;16.90;;;11.90;;
4957;SDS011;2494;51.872;9.688;2023-03-21T03:41:16;12.33;;;10.10;;
4957;SDS011;2494;51.872;9.688;2023-03-21T03:44:02;16.20;;;9.93;;
4957;SDS011;2494;51.872;9.688;2023-03-21T03:46:51;12.63;;;11.30;;
4957;SDS011;2494;51.872;9.688;2023-03-21T03:49:40;12.80;;;10.70;;
4957;SDS011;2494;51.872;9.688;2023-03-21T03:52:27;16.30;;;12.37;;
4957;SDS011;2494;51.872;9.688;2023-03-21T03:55:14;16.70;;;12.10;;
4957;SDS011;2494;51.872;9.688;2023-03-21T03:58:00;22.00;;;12.70;;
4957;SDS011;2494;51.872;9.688;2023-03-21T04:00:45;18.53;;;13.10;;
4957;SDS011;2494;51.872;9.688;2023-03-21T04:03:33;16.17;;;11.37;;
4957;SDS011;2494;51.872;9.688;2023-03-21T04:06:19;16.13;;;13.10;;
4957;SDS011;2494;51.872;9.688;2023-03-21T04:09:05;17.97;;;13.20;;
4957;SDS011;2494;51.872;9.688;2023-03-21T04:11:51;15.87;;;12.13;;
4957;SDS011;2494;51.872;9.688;2023-03-21T04:14:36;15.73;;;11.20;;
4957;SDS011;2494;51.872;9.688;2023-03-21T04:17:21;12.67;;;10.60;;
4957;SDS011;2494;51.872;9.688;2023-03-21T04:20:09;14.40;;;10.47;;
4957;SDS011;2494;51.872;9.688;2023-03-21T04:22:55;16.47;;;10.93;;
4957;SDS011;2494;51.872;9.688;2023-03-21T04:25:40;16.83;;;10.97;;
4957;SDS011;2494;51.872;9.688;2023-03-21T04:28:25;14.73;;;11.23;;
4957;SDS011;2494;51.872;9.688;2023-03-21T04:31:10;15.13;;;10.40;;
4957;SDS011;2494;51.872;9.688;2023-03-21T04:33:55;17.60;;;12.60;;
4957;SDS011;2494;51.872;9.688;2023-03-21T04:36:43;15.00;;;11.27;;
4957;SDS011;2494;51.872;9.688;2023-03-21T04:39:30;20.53;;;11.20;;
4957;SDS011;2494;51.872;9.688;2023-03-21T04:42:15;12.60;;;10.30;;
4957;SDS011;2494;51.872;9.688;2023-03-21T04:45:02;20.07;;;14.27;;
4957;SDS011;2494;51.872;9.688;2023-03-21T04:47:47;18.00;;;12.90;;
4957;SDS011;2494;51.872;9.688;2023-03-21T04:50:33;17.60;;;12.43;;
4957;SDS011;2494;51.872;9.688;2023-03-21T04:53:19;14.57;;;11.80;;
4957;SDS011;2494;51.872;9.688;2023-03-21T04:56:05;17.90;;;10.80;;
4957;SDS011;2494;51.872;9.688;2023-03-21T04:58:50;22.07;;;12.97;;
4957;SDS011;2494;51.872;9.688;2023-03-21T05:01:35;17.37;;;11.10;;
4957;SDS011;2494;51.872;9.688;2023-03-21T05:04:20;16.87;;;12.77;;
4957;SDS011;2494;51.872;9.688;2023-03-21T05:07:06;17.70;;;12.23;;
4957;SDS011;2494;51.872;9.688;2023-03-21T05:09:52;16.20;;;11.90;;
4957;SDS011;2494;51.872;9.688;2023-03-21T05:12:38;18.50;;;10.30;;
4957;SDS011;2494;51.872;9.688;2023-03-21T05:15:23;18.03;;;12.40;;
4957;SDS011;2494;51.872;9.688;2023-03-21T05:18:08;20.47;;;11.43;;
4957;SDS011;2494;51.872;9.688;2023-03-21T05:20:54;13.30;;;10.67;;
4957;SDS011;2494;51.872;9.688;2023-03-21T05:23:41;23.40;;;11.03;;
4957;SDS011;2494;51.872;9.688;2023-03-21T05:26:27;18.73;;;11.60;;
4957;SDS011;2494;51.872;9.688;2023-03-21T05:29:13;12.93;;;10.50;;
4957;SDS011;2494;51.872;9.688;2023-03-21T05:31:58;19.80;;;11.50;;
4957;SDS011;2494;51.872;9.688;2023-03-21T05:34:44;20.73;;;10.50;;
4957;SDS011;2494;51.872;9.688;2023-03-21T05:37:29;15.70;;;10.30;;
4957;SDS011;2494;51.872;9.688;2023-03-21T05:40:14;13.30;;;10.27;;
4957;SDS011;2494;51.872;9.688;2023-03-21T05:43:01;13.10;;;10.20;;
4957;SDS011;2494;51.872;9.688;2023-03-21T05:45:48;13.77;;;10.60;;
4957;SDS011;2494;51.872;9.688;2023-03-21T05:48:34;16.43;;;11.47;;
4957;SDS011;2494;51.872;9.688;2023-03-21T05:51:19;17.83;;;11.63;;
4957;SDS011;2494;51.872;9.688;2023-03-21T05:54:04;20.83;;;11.33;;
4957;SDS011;2494;51.872;9.688;2023-03-21T05:56:50;16.50;;;9.97;;
4957;SDS011;2494;51.872;9.688;2023-03-21T05:59:37;19.87;;;11.00;;
4957;SDS011;2494;51.872;9.688;2023-03-21T06:02:22;16.67;;;10.00;;
4957;SDS011;2494;51.872;9.688;2023-03-21T06:05:07;23.07;;;11.10;;
4957;SDS011;2494;51.872;9.688;2023-03-21T06:07:52;20.37;;;10.07;;
4957;SDS011;2494;51.872;9.688;2023-03-21T06:10:38;13.80;;;10.80;;
4957;SDS011;2494;51.872;9.688;2023-03-21T06:13:23;16.67;;;10.60;;
4957;SDS011;2494;51.872;9.688;2023-03-21T06:16:09;13.30;;;8.90;;
4957;SDS011;2494;51.872;9.688;2023-03-21T06:18:55;16.73;;;10.80;;
4957;SDS011;2494;51.872;9.688;2023-03-21T06:21:40;15.67;;;9.70;;
4957;SDS011;2494;51.872;9.688;2023-03-21T06:24:26;17.23;;;11.13;;
4957;SDS011;2494;51.872;9.688;2023-03-21T06:27:11;17.10;;;10.53;;
4957;SDS011;2494;51.872;9.688;2023-03-21T06:29:57;13.93;;;9.87;;
4957;SDS011;2494;51.872;9.688;2023-03-21T06:32:43;13.20;;;10.10;;
4957;SDS011;2494;51.872;9.688;2023-03-21T06:35:28;18.17;;;9.83;;
4957;SDS011;2494;51.872;9.688;2023-03-21T06:38:14;14.60;;;9.50;;
4957;SDS011;2494;51.872;9.688;2023-03-21T06:40:58;20.63;;;12.40;;
4957;SDS011;2494;51.872;9.688;2023-03-21T06:43:47;18.73;;;11.47;;
4957;SDS011;2494;51.872;9.688;2023-03-21T06:46:32;29.00;;;20.10;;
4957;SDS011;2494;51.872;9.688;2023-03-21T06:49:18;18.07;;;13.40;;
4957;SDS011;2494;51.872;9.688;2023-03-21T06:52:04;14.00;;;9.40;;
4957;SDS011;2494;51.872;9.688;2023-03-21T06:54:49;15.57;;;9.77;;
4957;SDS011;2494;51.872;9.688;2023-03-21T06:57:35;13.67;;;11.10;;
4957;SDS011;2494;51.872;9.688;2023-03-21T07:00:20;18.50;;;11.67;;
4957;SDS011;2494;51.872;9.688;2023-03-21T07:03:06;16.20;;;10.80;;
4957;SDS011;2494;51.872;9.688;2023-03-21T07:05:52;13.93;;;9.50;;
4957;SDS011;2494;51.872;9.688;2023-03-21T07:08:38;11.83;;;10.10;;
4957;SDS011;2494;51.872;9.688;2023-03-21T07:11:24;17.93;;;11.30;;
4957;SDS011;2494;51.872;9.688;2023-03-21T07:14:10;11.90;;;9.50;;
4957;SDS011;2494;51.872;9.688;2023-03-21T07:16:55;17.57;;;10.10;;
4957;SDS011;2494;51.872;9.688;2023-03-21T07:19:40;17.97;;;10.13;;
4957;SDS011;2494;51.872;9.688;2023-03-21T07:22:26;13.40;;;9.73;;
4957;SDS011;2494;51.872;9.688;2023-03-21T07:25:11;11.03;;;9.37;;
4957;SDS011;2494;51.872;9.688;2023-03-21T07:27:57;12.73;;;8.30;;
4957;SDS011;2494;51.872;9.688;2023-03-21T07:30:42;15.43;;;9.67;;
4957;SDS011;2494;51.872;9.688;2023-03-21T07:33:27;14.80;;;9.20;;
4957;SDS011;2494;51.872;9.688;2023-03-21T07:36:13;13.37;;;8.53;;
4957;SDS011;2494;51.872;9.688;2023-03-21T07:39:00;15.63;;;10.43;;
4957;SDS011;2494;51.872;9.688;2023-03-21T07:41:46;17.57;;;10.00;;
4957;SDS011;2494;51.872;9.688;2023-03-21T07:44:31;13.10;;;9.60;;
4957;SDS011;2494;51.872;9.688;2023-03-21T07:47:16;18.17;;;10.83;;
4957;SDS011;2494;51.872;9.688;2023-03-21T07:50:01;15.53;;;10.97;;
4957;SDS011;2494;51.872;9.688;2023-03-21T07:52:47;15.27;;;9.07;;
4957;SDS011;2494;51.872;9.688;2023-03-21T07:55:34;16.40;;;10.17;;
4957;SDS011;2494;51.872;9.688;2023-03-21T07:58:19;14.03;;;11.33;;
4957;SDS011;2494;51.872;9.688;2023-03-21T08:01:05;19.83;;;10.17;;
4957;SDS011;2494;51.872;9.688;2023-03-21T08:03:50;31.20;;;11.97;;
4957;SDS011;2494;51.872;9.688;2023-03-21T08:06:36;16.63;;;10.13;;
4957;SDS011;2494;51.872;9.688;2023-03-21T08:09:21;13.80;;;8.47;;
4957;SDS011;2494;51.872;9.688;2023-03-21T08:12:08;16.50;;;9.70;;
4957;SDS011;2494;51.872;9.688;2023-03-21T08:14:53;13.90;;;8.57;;
4957;SDS011;2494;51.872;9.688;2023-03-21T08:17:39;12.40;;;7.63;;
4957;SDS011;2494;51.872;9.688;2023-03-21T08:20:24;13.37;;;9.17;;
4957;SDS011;2494;51.872;9.688;2023-03-21T08:23:10;12.93;;;8.40;;
4957;SDS011;2494;51.872;9.688;2023-03-21T08:25:56;18.30;;;9.33;;
4957;SDS011;2494;51.872;9.688;2023-03-21T08:28:44;12.27;;;9.47;;
4957;SDS011;2494;51.872;9.688;2023-03-21T08:31:29;15.20;;;9.33;;
4957;SDS011;2494;51.872;9.688;2023-03-21T08:34:14;18.00;;;9.73;;
4957;SDS011;2494;51.872;9.688;2023-03-21T08:37:00;17.40;;;10.27;;
4957;SDS011;2494;51.872;9.688;2023-03-21T08:39:46;25.50;;;10.90;;
4957;SDS011;2494;51.872;9.688;2023-03-21T08:42:31;14.50;;;8.50;;
4957;SDS011;2494;51.872;9.688;2023-03-21T08:45:18;14.27;;;9.50;;
4957;SDS011;2494;51.872;9.688;2023-03-21T08:48:05;14.43;;;7.97;;
4957;SDS011;2494;51.872;9.688;2023-03-21T08:50:50;16.37;;;8.87;;
4957;SDS011;2494;51.872;9.688;2023-03-21T08:53:36;14.60;;;8.80;;
4957;SDS011;2494;51.872;9.688;2023-03-21T08:56:24;10.73;;;7.30;;
4957;SDS011;2494;51.872;9.688;2023-03-21T08:59:09;10.60;;;9.33;;
4957;SDS011;2494;51.872;9.688;2023-03-21T09:01:56;13.37;;;8.27;;
4957;SDS011;2494;51.872;9.688;2023-03-21T09:04:41;18.07;;;9.13;;
4957;SDS011;2494;51.872;9.688;2023-03-21T09:07:27;10.00;;;7.93;;
4957;SDS011;2494;51.872;9.688;2023-03-21T09:10:13;14.73;;;9.43;;
4957;SDS011;2494;51.872;9.688;2023-03-21T09:12:58;11.27;;;8.00;;
4957;SDS011;2494;51.872;9.688;2023-03-21T09:15:44;12.20;;;8.00;;
4957;SDS011;2494;51.872;9.688;2023-03-21T09:18:31;11.50;;;7.60;;
4957;SDS011;2494;51.872;9.688;2023-03-21T09:21:29;10.37;;;6.90;;
4957;SDS011;2494;51.872;9.688;2023-03-21T09:24:15;12.43;;;7.90;;
4957;SDS011;2494;51.872;9.688;2023-03-21T09:27:00;11.57;;;8.03;;
4957;SDS011;2494;51.872;9.688;2023-03-21T09:29:46;9.23;;;7.00;;
4957;SDS011;2494;51.872;9.688;2023-03-21T09:32:31;9.27;;;6.70;;
4957;SDS011;2494;51.872;9.688;2023-03-21T09:35:19;12.23;;;7.63;;
4957;SDS011;2494;51.872;9.688;2023-03-21T09:38:04;14.63;;;7.50;;
4957;SDS011;2494;51.872;9.688;2023-03-21T09:40:54;14.73;;;9.17;;
4957;SDS011;2494;51.872;9.688;2023-03-21T09:43:44;12.00;;;8.17;;
4957;SDS011;2494;51.872;9.688;2023-03-21T09:46:34;13.30;;;7.33;;
4957;SDS011;2494;51.872;9.688;2023-03-21T09:49:21;10.80;;;6.70;;
4957;SDS011;2494;51.872;9.688;2023-03-21T09:52:10;8.47;;;6.17;;
4957;SDS011;2494;51.872;9.688;2023-03-21T09:54:57;7.63;;;5.67;;
4957;SDS011;2494;51.872;9.688;2023-03-21T09:57:43;16.63;;;7.00;;
4957;SDS011;2494;51.872;9.688;2023-03-21T10:00:32;9.23;;;6.03;;
4957;SDS011;2494;51.872;9.688;2023-03-21T10:03:19;10.70;;;5.70;;
4957;SDS011;2494;51.872;9.688;2023-03-21T10:06:09;7.17;;;6.00;;
4957;SDS011;2494;51.872;9.688;2023-03-21T10:08:57;7.90;;;5.90;;
4957;SDS011;2494;51.872;9.688;2023-03-21T10:11:44;7.47;;;5.77;;
4957;SDS011;2494;51.872;9.688;2023-03-21T10:14:32;9.13;;;6.77;;
4957;SDS011;2494;51.872;9.688;2023-03-21T10:17:24;10.33;;;6.50;;
4957;SDS011;2494;51.872;9.688;2023-03-21T10:20:11;13.30;;;6.63;;
4957;SDS011;2494;51.872;9.688;2023-03-21T10:22:58;11.53;;;6.70;;
4957;SDS011;2494;51.872;9.688;2023-03-21T10:25:52;12.60;;;6.30;;
4957;SDS011;2494;51.872;9.688;2023-03-21T10:28:41;10.93;;;7.43;;
4957;SDS011;2494;51.872;9.688;2023-03-21T10:31:27;14.03;;;8.70;;
4957;SDS011;2494;51.872;9.688;2023-03-21T10:34:14;11.93;;;7.80;;
4957;SDS011;2494;51.872;9.688;2023-03-21T10:37:01;17.20;;;8.43;;
4957;SDS011;2494;51.872;9.688;2023-03-21T10:39:47;13.10;;;8.40;;
4957;SDS011;2494;51.872;9.688;2023-03-21T10:42:35;13.93;;;7.73;;
4957;SDS011;2494;51.872;9.688;2023-03-21T10:45:20;11.10;;;9.23;;
4957;SDS011;2494;51.872;9.688;2023-03-21T10:48:18;16.47;;;10.30;;
4957;SDS011;2494;51.872;9.688;2023-03-21T10:51:04;12.03;;;10.03;;
4957;SDS011;2494;51.872;9.688;2023-03-21T10:53:51;14.40;;;9.00;;
4957;SDS011;2494;51.872;9.688;2023-03-21T10:56:39;11.47;;;9.47;;
4957;SDS011;2494;51.872;9.688;2023-03-21T10:59:33;14.13;;;11.00;;
4957;SDS011;2494;51.872;9.688;2023-03-21T11:02:20;16.43;;;11.73;;
4957;SDS011;2494;51.872;9.688;2023-03-21T11:05:15;14.90;;;11.13;;
4957;SDS011;2494;51.872;9.688;2023-03-21T11:08:02;13.00;;;10.43;;
4957;SDS011;2494;51.872;9.688;2023-03-21T11:10:50;16.87;;;10.83;;
4957;SDS011;2494;51.872;9.688;2023-03-21T11:13:36;16.73;;;10.50;;
4957;SDS011;2494;51.872;9.688;2023-03-21T11:16:24;13.57;;;11.20;;
4957;SDS011;2494;51.872;9.688;2023-03-21T11:19:14;19.93;;;12.10;;
4957;SDS011;2494;51.872;9.688;2023-03-21T11:22:03;13.00;;;10.10;;
4957;SDS011;2494;51.872;9.688;2023-03-21T11:24:49;15.00;;;11.37;;
4957;SDS011;2494;51.872;9.688;2023-03-21T11:27:35;15.00;;;11.30;;
4957;SDS011;2494;51.872;9.688;2023-03-21T11:30:21;13.40;;;10.17;;
4957;SDS011;2494;51.872;9.688;2023-03-21T11:33:09;15.53;;;10.03;;
4957;SDS011;2494;51.872;9.688;2023-03-21T11:35:57;15.77;;;10.40;;
4957;SDS011;2494;51.872;9.688;2023-03-21T11:38:43;14.80;;;9.97;;
4957;SDS011;2494;51.872;9.688;2023-03-21T11:41:32;15.87;;;10.20;;
4957;SDS011;2494;51.872;9.688;2023-03-21T11:44:25;16.70;;;9.87;;
4957;SDS011;2494;51.872;9.688;2023-03-21T11:47:11;20.00;;;10.80;;
4957;SDS011;2494;51.872;9.688;2023-03-21T11:49:58;16.70;;;10.83;;
4957;SDS011;2494;51.872;9.688;2023-03-21T11:52:46;13.87;;;11.33;;
4957;SDS011;2494;51.872;9.688;2023-03-21T11:55:35;17.23;;;10.57;;
4957;SDS011;2494;51.872;9.688;2023-03-21T11:58:30;15.53;;;11.37;;
4957;SDS011;2494;51.872;9.688;2023-03-21T12:01:18;18.50;;;11.10;;
4957;SDS011;2494;51.872;9.688;2023-03-21T12:04:15;22.10;;;10.20;;
4957;SDS011;2494;51.872;9.688;2023-03-21T12:07:08;14.17;;;10.10;;
4957;SDS011;2494;51.872;9.688;2023-03-21T12:09:56;19.13;;;10.73;;
4957;SDS011;2494;51.872;9.688;2023-03-21T12:12:46;15.77;;;11.27;;
4957;SDS011;2494;51.872;9.688;2023-03-21T12:15:35;14.90;;;11.10;;
4957;SDS011;2494;51.872;9.688;2023-03-21T12:18:27;20.60;;;10.70;;
4957;SDS011;2494;51.872;9.688;2023-03-21T12:21:21;13.10;;;10.13;;
4957;SDS011;2494;51.872;9.688;2023-03-21T12:24:10;15.93;;;11.10;;
4957;SDS011;2494;51.872;9.688;2023-03-21T12:26:58;15.77;;;9.30;;
4957;SDS011;2494;51.872;9.688;2023-03-21T12:29:54;11.27;;;9.90;;
4957;SDS011;2494;51.872;9.688;2023-03-21T12:32:50;12.50;;;8.87;;
4957;SDS011;2494;51.872;9.688;2023-03-21T12:35:40;13.43;;;9.27;;
4957;SDS011;2494;51.872;9.688;2023-03-21T12:38:31;14.80;;;8.60;;
4957;SDS011;2494;51.872;9.688;2023-03-21T12:41:23;11.57;;;8.10;;
4957;SDS011;2494;51.872;9.688;2023-03-21T12:44:11;12.40;;;8.60;;
4957;SDS011;2494;51.872;9.688;2023-03-21T12:46:58;9.33;;;7.40;;
4957;SDS011;2494;51.872;9.688;2023-03-21T12:49:45;12.53;;;8.87;;
4957;SDS011;2494;51.872;9.688;2023-03-21T12:52:31;11.60;;;8.53;;
4957;SDS011;2494;51.872;9.688;2023-03-21T12:55:18;9.73;;;7.67;;
4957;SDS011;2494;51.872;9.688;2023-03-21T12:58:08;10.00;;;7.50;;
4957;SDS011;2494;51.872;9.688;2023-03-21T13:00:56;13.93;;;8.47;;
4957;SDS011;2494;51.872;9.688;2023-03-21T13:03:45;10.60;;;7.40;;
4957;SDS011;2494;51.872;9.688;2023-03-21T13:06:33;20.50;;;13.10;;
4957;SDS011;2494;51.872;9.688;2023-03-21T13:09:21;12.47;;;7.53;;
4957;SDS011;2494;51.872;9.688;2023-03-21T13:12:23;9.77;;;7.43;;
4957;SDS011;2494;51.872;9.688;2023-03-21T13:15:21;10.00;;;6.63;;
4957;SDS011;2494;51.872;9.688;2023-03-21T13:18:12;11.77;;;7.77;;
4957;SDS011;2494;51.872;9.688;2023-03-21T13:21:00;8.03;;;5.80;;
4957;SDS011;2494;51.872;9.688;2023-03-21T13:23:58;9.00;;;6.87;;
4957;SDS011;2494;51.872;9.688;2023-03-21T13:26:44;15.07;;;6.73;;
4957;SDS011;2494;51.872;9.688;2023-03-21T13:29:32;8.73;;;5.90;;
4957;SDS011;2494;51.872;9.688;2023-03-21T13:32:24;8.27;;;6.30;;
4957;SDS011;2494;51.872;9.688;2023-03-21T13:35:12;8.63;;;5.90;;
4957;SDS011;2494;51.872;9.688;2023-03-21T13:38:00;7.10;;;5.27;;
4957;SDS011;2494;51.872;9.688;2023-03-21T13:40:48;6.83;;;6.20;;
4957;SDS011;2494;51.872;9.688;2023-03-21T13:43:43;6.13;;;5.50;;
4957;SDS011;2494;51.872;9.688;2023-03-21T13:46:35;12.20;;;6.63;;
4957;SDS011;2494;51.872;9.688;2023-03-21T13:52:26;9.20;;;5.87;;
4957;SDS011;2494;51.872;9.688;2023-03-21T13:55:13;6.53;;;5.80;;
4957;SDS011;2494;51.872;9.688;2023-03-21T13:57:59;5.90;;;5.23;;
4957;SDS011;2494;51.872;9.688;2023-03-21T14:01:15;7.80;;;5.70;;
4957;SDS011;2494;51.872;9.688;2023-03-21T14:04:03;7.57;;;5.73;;
4957;SDS011;2494;51.872;9.688;2023-03-21T14:06:50;9.70;;;5.87;;
4957;SDS011;2494;51.872;9.688;2023-03-21T14:09:39;7.20;;;6.47;;
4957;SDS011;2494;51.872;9.688;2023-03-21T14:12:27;6.70;;;5.50;;
4957;SDS011;2494;51.872;9.688;2023-03-21T14:15:14;7.57;;;6.70;;
4957;SDS011;2494;51.872;9.688;2023-03-21T14:18:04;7.67;;;6.03;;
4957;SDS011;2494;51.872;9.688;2023-03-21T14:20:51;7.87;;;6.10;;
4957;SDS011;2494;51.872;9.688;2023-03-21T14:23:37;7.97;;;7.17;;
4957;SDS011;2494;51.872;9.688;2023-03-21T14:26:23;10.00;;;6.57;;
4957;SDS011;2494;51.872;9.688;2023-03-21T14:29:11;14.47;;;7.80;;
4957;SDS011;2494;51.872;9.688;2023-03-21T14:31:59;6.73;;;6.20;;
4957;SDS011;2494;51.872;9.688;2023-03-21T14:34:50;10.23;;;9.23;;
4957;SDS011;2494;51.872;9.688;2023-03-21T14:37:36;9.23;;;7.23;;
4957;SDS011;2494;51.872;9.688;2023-03-21T14:40:26;9.87;;;6.33;;
4957;SDS011;2494;51.872;9.688;2023-03-21T14:43:11;12.90;;;9.30;;
4957;SDS011;2494;51.872;9.688;2023-03-21T14:45:56;7.63;;;6.83;;
4957;SDS011;2494;51.872;9.688;2023-03-21T14:48:41;6.70;;;6.00;;
4957;SDS011;2494;51.872;9.688;2023-03-21T14:51:28;11.00;;;7.33;;
4957;SDS011;2494;51.872;9.688;2023-03-21T14:54:15;12.13;;;6.63;;
4957;SDS011;2494;51.872;9.688;2023-03-21T14:57:01;9.03;;;6.67;;
4957;SDS011;2494;51.872;9.688;2023-03-21T14:59:47;12.00;;;6.77;;
4957;SDS011;2494;51.872;9.688;2023-03-21T15:02:34;6.57;;;5.97;;
4957;SDS011;2494;51.872;9.688;2023-03-21T15:05:22;7.20;;;6.33;;
4957;SDS011;2494;51.872;9.688;2023-03-21T15:08:11;6.07;;;5.57;;
4957;SDS011;2494;51.872;9.688;2023-03-21T15:10:58;7.87;;;6.27;;
4957;SDS011;2494;51.872;9.688;2023-03-21T15:13:44;8.37;;;7.40;;
4957;SDS011;2494;51.872;9.688;2023-03-21T15:16:32;10.60;;;7.80;;
4957;SDS011;2494;51.872;9.688;2023-03-21T15:19:19;7.03;;;6.47;;
4957;SDS011;2494;51.872;9.688;2023-03-21T15:22:07;6.97;;;6.30;;
4957;SDS011;2494;51.872;9.688;2023-03-21T15:24:56;6.33;;;5.83;;
4957;SDS011;2494;51.872;9.688;2023-03-21T15:27:42;10.17;;;6.20;;
4957;SDS011;2494;51.872;9.688;2023-03-21T15:30:27;9.20;;;6.40;;
4957;SDS011;2494;51.872;9.688;2023-03-21T15:33:13;9.33;;;5.70;;
4957;SDS011;2494;51.872;9.688;2023-03-21T15:35:58;5.83;;;5.40;;
4957;SDS011;2494;51.872;9.688;2023-03-21T15:38:44;15.10;;;11.47;;
4957;SDS011;2494;51.872;9.688;2023-03-21T15:41:33;8.80;;;6.27;;
4957;SDS011;2494;51.872;9.688;2023-03-21T15:44:18;5.23;;;4.77;;
4957;SDS011;2494;51.872;9.688;2023-03-21T15:47:07;6.33;;;4.90;;
4957;SDS011;2494;51.872;9.688;2023-03-21T15:49:53;5.97;;;5.37;;
4957;SDS011;2494;51.872;9.688;2023-03-21T15:52:38;5.17;;;4.83;;
4957;SDS011;2494;51.872;9.688;2023-03-21T15:55:26;5.40;;;4.90;;
4957;SDS011;2494;51.872;9.688;2023-03-21T15:58:14;5.80;;;4.90;;
4957;SDS011;2494;51.872;9.688;2023-03-21T16:01:01;6.90;;;5.23;;
4957;SDS011;2494;51.872;9.688;2023-03-21T16:03:54;6.20;;;5.60;;
4957;SDS011;2494;51.872;9.688;2023-03-21T16:06:49;6.00;;;5.40;;
4957;SDS011;2494;51.872;9.688;2023-03-21T16:09:38;7.93;;;6.47;;
4957;SDS011;2494;51.872;9.688;2023-03-21T16:12:25;6.43;;;5.90;;
4957;SDS011;2494;51.872;9.688;2023-03-21T16:15:12;7.37;;;6.60;;
4957;SDS011;2494;51.872;9.688;2023-03-21T16:17:58;7.70;;;5.53;;
4957;SDS011;2494;51.872;9.688;2023-03-21T16:20:44;8.90;;;6.60;;
4957;SDS011;2494;51.872;9.688;2023-03-21T16:23:31;8.23;;;6.07;;
4957;SDS011;2494;51.872;9.688;2023-03-21T16:26:17;5.83;;;5.33;;
4957;SDS011;2494;51.872;9.688;2023-03-21T16:29:03;6.97;;;5.70;;
4957;SDS011;2494;51.872;9.688;2023-03-21T16:31:52;9.53;;;8.53;;
4957;SDS011;2494;51.872;9.688;2023-03-21T16:34:38;6.47;;;5.50;;
4957;SDS011;2494;51.872;9.688;2023-03-21T16:37:24;5.00;;;4.70;;
4957;SDS011;2494;51.872;9.688;2023-03-21T16:40:14;5.30;;;4.90;;
4957;SDS011;2494;51.872;9.688;2023-03-21T16:43:00;11.00;;;8.33;;
4957;SDS011;2494;51.872;9.688;2023-03-21T16:45:44;9.17;;;6.37;;
4957;SDS011;2494;51.872;9.688;2023-03-21T16:48:31;8.83;;;6.53;;
4957;SDS011;2494;51.872;9.688;2023-03-21T16:51:17;6.83;;;6.20;;
4957;SDS011;2494;51.872;9.688;2023-03-21T16:54:04;9.43;;;5.63;;
4957;SDS011;2494;51.872;9.688;2023-03-21T16:56:49;13.77;;;6.90;;
4957;SDS011;2494;51.872;9.688;2023-03-21T16:59:35;3.20;;;3.00;;
4957;SDS011;2494;51.872;9.688;2023-03-21T17:02:23;3.27;;;3.00;;
4957;SDS011;2494;51.872;9.688;2023-03-21T17:05:10;3.90;;;3.23;;
4957;SDS011;2494;51.872;9.688;2023-03-21T17:07:55;2.40;;;2.20;;